createdAt,value
2023-03-11T00:00:09.586Z,8
2023-03-11T00:01:19.319Z,8
2023-03-11T00:02:26.512Z,7
2023-03-11T00:03:33.430Z,9
2023-03-11T00:04:40.594Z,6
2023-03-11T00:05:47.620Z,6
2023-03-11T00:06:54.655Z,6
2023-03-11T00:08:01.636Z,6
2023-03-11T00:09:09.396Z,8
2023-03-11T00:10:19.337Z,6
2023-03-11T00:11:31.461Z,6
2023-03-11T00:12:39.927Z,6
2023-03-11T00:13:48.831Z,5
2023-03-11T00:14:58.213Z,6
2023-03-11T00:16:05.219Z,7
2023-03-11T00:17:12.264Z,7
2023-03-11T00:18:19.213Z,7
2023-03-11T00:19:28.997Z,7
2023-03-11T00:20:36.026Z,6
2023-03-11T00:21:43.080Z,7
2023-03-11T00:22:50.154Z,6
2023-03-11T00:23:57.130Z,7
2023-03-11T00:25:04.096Z,7
2023-03-11T00:26:11.188Z,5
2023-03-11T00:27:18.139Z,6
2023-03-11T00:28:25.463Z,6
2023-03-11T00:29:32.456Z,5
2023-03-11T00:30:40.310Z,5
2023-03-11T00:31:47.253Z,5
2023-03-11T00:32:54.322Z,5
2023-03-11T00:34:02.483Z,4
2023-03-11T00:35:09.560Z,7
2023-03-11T00:36:16.627Z,5
2023-03-11T00:37:26.307Z,7
2023-03-11T00:38:35.945Z,6
2023-03-11T00:39:42.831Z,4
2023-03-11T00:40:50.743Z,5
2023-03-11T00:41:59.716Z,4
2023-03-11T00:43:07.089Z,4
2023-03-11T00:44:15.051Z,4
2023-03-11T00:45:22.107Z,5
2023-03-11T00:46:29.127Z,5
2023-03-11T00:47:39.030Z,5
2023-03-11T00:48:46.049Z,4
2023-03-11T00:49:53.092Z,5
2023-03-11T00:51:00.127Z,5
2023-03-11T00:52:07.267Z,5
2023-03-11T00:53:14.382Z,5
2023-03-11T00:54:21.491Z,5
2023-03-11T00:55:28.450Z,5
2023-03-11T00:56:35.506Z,5
2023-03-11T00:57:42.482Z,5
2023-03-11T00:58:49.489Z,5
2023-03-11T00:59:56.538Z,6
2023-03-11T01:01:06.567Z,3
2023-03-11T01:02:16.579Z,4
2023-03-11T01:03:23.588Z,4
2023-03-11T01:04:30.565Z,5
2023-03-11T01:05:37.776Z,6
2023-03-11T01:06:45.746Z,5
2023-03-11T01:07:51.784Z,5
2023-03-11T01:09:02.006Z,5
2023-03-11T01:10:09.040Z,3
2023-03-11T01:11:19.250Z,4
2023-03-11T01:12:27.071Z,4
2023-03-11T01:13:34.055Z,3
2023-03-11T01:14:41.190Z,4
2023-03-11T01:15:50.959Z,3
2023-03-11T01:16:58.023Z,3
2023-03-11T01:18:06.892Z,5
2023-03-11T01:19:14.297Z,3
2023-03-11T01:20:21.544Z,4
2023-03-11T01:21:28.553Z,6
2023-03-11T01:22:35.878Z,5
2023-03-11T01:23:42.995Z,6
2023-03-11T01:24:49.933Z,6
2023-03-11T01:25:56.981Z,5
2023-03-11T01:27:04.154Z,5
2023-03-11T01:28:14.178Z,6
2023-03-11T01:29:25.959Z,6
2023-03-11T01:30:32.986Z,6
2023-03-11T01:31:40.720Z,5
2023-03-11T01:32:47.840Z,5
2023-03-11T01:33:54.761Z,6
2023-03-11T01:35:01.781Z,5
2023-03-11T01:36:09.130Z,6
2023-03-11T01:37:16.135Z,5
2023-03-11T01:38:23.153Z,5
2023-03-11T01:39:30.161Z,5
2023-03-11T01:40:40.127Z,5
2023-03-11T01:41:47.188Z,5
2023-03-11T01:42:54.853Z,4
2023-03-11T01:44:04.510Z,5
2023-03-11T01:45:11.769Z,4
2023-03-11T01:46:28.998Z,5
2023-03-11T01:47:46.920Z,3
2023-03-11T01:48:53.895Z,5
2023-03-11T01:50:01.157Z,5
2023-03-11T01:51:08.798Z,4
2023-03-11T01:52:15.824Z,4
2023-03-11T01:53:22.846Z,3
2023-03-11T01:54:29.832Z,3
2023-03-11T01:55:36.953Z,5
2023-03-11T01:56:44.974Z,4
2023-03-11T01:57:51.974Z,4
2023-03-11T01:58:58.941Z,4
2023-03-11T02:00:06.169Z,6
2023-03-11T02:01:13.458Z,5
2023-03-11T02:02:23.224Z,5
2023-03-11T02:03:33.261Z,5
2023-03-11T02:04:40.405Z,5
2023-03-11T02:05:47.477Z,5
2023-03-11T02:06:54.516Z,6
2023-03-11T02:08:01.504Z,7
2023-03-11T02:09:08.626Z,6
2023-03-11T02:10:15.657Z,6
2023-03-11T02:11:22.756Z,6
2023-03-11T02:12:29.719Z,4
2023-03-11T02:13:36.869Z,5
2023-03-11T02:14:43.803Z,4
2023-03-11T02:15:50.837Z,4
2023-03-11T02:16:57.868Z,5
2023-03-11T02:18:06.113Z,5
2023-03-11T02:19:13.088Z,5
2023-03-11T02:20:22.886Z,4
2023-03-11T02:21:35.064Z,5
2023-03-11T02:22:42.057Z,4
2023-03-11T02:23:49.099Z,4
2023-03-11T02:25:06.198Z,5
2023-03-11T02:26:13.260Z,5
2023-03-11T02:27:20.288Z,5
2023-03-11T02:28:28.227Z,4
2023-03-11T02:29:37.527Z,4
2023-03-11T02:30:44.502Z,4
2023-03-11T02:31:51.579Z,6
2023-03-11T02:33:01.362Z,4
2023-03-11T02:34:11.022Z,5
2023-03-11T02:35:23.019Z,6
2023-03-11T02:36:30.046Z,5
2023-03-11T02:37:43.068Z,4
2023-03-11T02:38:50.156Z,6
2023-03-11T02:39:59.247Z,5
2023-03-11T02:41:14.402Z,5
2023-03-11T02:42:24.331Z,5
2023-03-11T02:43:31.363Z,5
2023-03-11T02:44:41.414Z,4
2023-03-11T02:45:48.418Z,5
2023-03-11T02:46:57.089Z,5
2023-03-11T02:48:04.036Z,4
2023-03-11T02:49:11.063Z,5
2023-03-11T02:50:18.040Z,6
2023-03-11T02:51:26.301Z,3
2023-03-11T02:52:34.295Z,5
2023-03-11T02:53:42.376Z,5
2023-03-11T02:54:50.421Z,5
2023-03-11T02:55:57.439Z,5
2023-03-11T02:57:04.494Z,4
2023-03-11T02:58:11.625Z,5
2023-03-11T02:59:18.562Z,4
2023-03-11T03:00:25.587Z,5
2023-03-11T03:01:32.630Z,5
2023-03-11T03:02:41.404Z,4
2023-03-11T03:03:48.419Z,4
2023-03-11T03:04:55.905Z,3
2023-03-11T03:06:02.964Z,4
2023-03-11T03:07:09.879Z,4
2023-03-11T03:08:16.890Z,4
2023-03-11T03:09:23.844Z,5
2023-03-11T03:10:33.506Z,4
2023-03-11T03:11:42.390Z,3
2023-03-11T03:12:49.400Z,3
2023-03-11T03:13:56.362Z,4
2023-03-11T03:15:08.701Z,4
2023-03-11T03:16:15.744Z,5
2023-03-11T03:17:22.804Z,5
2023-03-11T03:18:29.895Z,4
2023-03-11T03:19:37.047Z,3
2023-03-11T03:20:44.963Z,3
2023-03-11T03:21:52.018Z,3
2023-03-11T03:22:58.993Z,3
2023-03-11T03:24:06.123Z,5
2023-03-11T03:25:15.068Z,4
2023-03-11T03:26:22.131Z,3
2023-03-11T03:27:30.741Z,4
2023-03-11T03:28:37.726Z,2
2023-03-11T03:29:44.871Z,3
2023-03-11T03:30:52.946Z,3
2023-03-11T03:31:59.998Z,4
2023-03-11T03:33:07.006Z,2
2023-03-11T03:34:14.059Z,4
2023-03-11T03:35:21.843Z,3
2023-03-11T03:36:28.823Z,3
2023-03-11T03:37:35.828Z,3
2023-03-11T03:38:46.187Z,3
2023-03-11T03:39:56.024Z,4
2023-03-11T03:41:03.131Z,3
2023-03-11T03:42:10.384Z,5
2023-03-11T03:43:17.579Z,4
2023-03-11T03:44:24.620Z,3
2023-03-11T03:45:31.756Z,3
2023-03-11T03:46:39.943Z,4
2023-03-11T03:47:46.940Z,4
2023-03-11T03:48:54.249Z,4
2023-03-11T03:50:01.308Z,4
2023-03-11T03:51:08.475Z,4
2023-03-11T03:52:15.628Z,3
2023-03-11T03:53:23.251Z,4
2023-03-11T03:54:30.176Z,4
2023-03-11T03:55:37.113Z,4
2023-03-11T03:56:44.102Z,3
2023-03-11T03:57:51.147Z,4
2023-03-11T03:58:58.919Z,3
2023-03-11T04:00:06.060Z,4
2023-03-11T04:01:13.302Z,4
2023-03-11T04:02:21.094Z,5
2023-03-11T04:03:28.124Z,4
2023-03-11T04:04:34.937Z,4
2023-03-11T04:05:41.887Z,3
2023-03-11T04:06:48.904Z,3
2023-03-11T04:07:55.882Z,4
2023-03-11T04:09:03.453Z,3
2023-03-11T04:10:10.484Z,4
2023-03-11T04:11:17.485Z,5
2023-03-11T04:12:24.524Z,4
2023-03-11T04:13:31.621Z,3
2023-03-11T04:14:38.597Z,2
2023-03-11T04:15:45.520Z,2
2023-03-11T04:16:52.639Z,3
2023-03-11T04:17:59.601Z,3
2023-03-11T04:19:06.669Z,2
2023-03-11T04:20:14.415Z,3
2023-03-11T04:21:21.407Z,2
2023-03-11T04:22:28.441Z,4
2023-03-11T04:23:35.793Z,3
2023-03-11T04:24:43.368Z,2
2023-03-11T04:25:50.401Z,2
2023-03-11T04:26:57.377Z,3
2023-03-11T04:28:04.365Z,3
2023-03-11T04:29:11.359Z,3
2023-03-11T04:30:20.982Z,4
2023-03-11T04:31:28.880Z,3
2023-03-11T04:32:35.889Z,3
2023-03-11T04:33:43.008Z,3
2023-03-11T04:34:53.087Z,3
2023-03-11T04:36:01.021Z,2
2023-03-11T04:37:11.480Z,1
2023-03-11T04:38:18.468Z,2
2023-03-11T04:39:25.435Z,2
2023-03-11T04:40:32.423Z,2
2023-03-11T04:41:43.215Z,2
2023-03-11T04:42:53.163Z,2
2023-03-11T04:44:01.651Z,2
2023-03-11T04:45:08.677Z,2
2023-03-11T04:46:15.892Z,2
2023-03-11T04:47:22.701Z,2
2023-03-11T04:48:29.675Z,2
2023-03-11T04:49:36.609Z,2
2023-03-11T04:50:43.610Z,3
2023-03-11T04:51:50.669Z,2
2023-03-11T04:52:57.806Z,2
2023-03-11T04:54:04.765Z,1
2023-03-11T04:55:11.806Z,2
2023-03-11T04:56:18.773Z,2
2023-03-11T04:57:29.049Z,2
2023-03-11T04:58:36.005Z,2
2023-03-11T04:59:45.800Z,2
2023-03-11T05:00:52.809Z,3
2023-03-11T05:02:00.136Z,2
2023-03-11T05:03:08.020Z,3
2023-03-11T05:04:15.139Z,3
2023-03-11T05:05:21.960Z,3
2023-03-11T05:06:28.961Z,3
2023-03-11T05:07:36.001Z,3
2023-03-11T05:08:43.062Z,2
2023-03-11T05:09:50.057Z,3
2023-03-11T05:10:57.018Z,2
2023-03-11T05:12:07.370Z,2
2023-03-11T05:13:14.338Z,3
2023-03-11T05:14:23.918Z,3
2023-03-11T05:15:30.837Z,2
2023-03-11T05:16:38.581Z,2
2023-03-11T05:17:45.894Z,2
2023-03-11T05:18:55.785Z,3
2023-03-11T05:20:02.757Z,2
2023-03-11T05:21:09.946Z,2
2023-03-11T05:22:16.839Z,3
2023-03-11T05:23:24.304Z,2
2023-03-11T05:24:31.367Z,2
2023-03-11T05:25:38.397Z,3
2023-03-11T05:26:48.135Z,2
2023-03-11T05:27:52.329Z,2
2023-03-11T05:28:59.300Z,2
2023-03-11T05:30:10.120Z,3
2023-03-11T05:31:18.801Z,3
2023-03-11T05:32:25.818Z,3
2023-03-11T05:33:32.874Z,3
2023-03-11T05:34:39.835Z,4
2023-03-11T05:35:50.873Z,2
2023-03-11T05:36:57.764Z,2
2023-03-11T05:38:04.812Z,3
2023-03-11T05:39:11.757Z,2
2023-03-11T05:40:18.737Z,3
2023-03-11T05:41:25.761Z,3
2023-03-11T05:42:34.564Z,2
2023-03-11T05:43:41.500Z,2
2023-03-11T05:44:48.491Z,2
2023-03-11T05:45:55.491Z,2
2023-03-11T05:47:04.824Z,2
2023-03-11T05:48:11.720Z,3
2023-03-11T05:49:21.609Z,3
2023-03-11T05:50:31.103Z,3
2023-03-11T05:51:38.317Z,3
2023-03-11T05:52:45.291Z,3
2023-03-11T05:53:52.496Z,3
2023-03-11T05:54:59.491Z,3
2023-03-11T05:56:06.553Z,3
2023-03-11T05:57:13.981Z,3
2023-03-11T05:58:21.994Z,3
2023-03-11T05:59:34.372Z,4
2023-03-11T06:00:42.205Z,5
2023-03-11T06:01:49.227Z,5
2023-03-11T06:02:56.318Z,5
2023-03-11T06:04:06.340Z,4
2023-03-11T06:05:14.046Z,5
2023-03-11T06:06:23.123Z,4
2023-03-11T06:07:30.071Z,5
2023-03-11T06:08:37.026Z,4
2023-03-11T06:09:45.014Z,4
2023-03-11T06:10:54.651Z,4
2023-03-11T06:12:06.782Z,4
2023-03-11T06:13:15.043Z,4
2023-03-11T06:14:22.159Z,5
2023-03-11T06:15:29.122Z,3
2023-03-11T06:16:36.278Z,3
2023-03-11T06:17:43.050Z,4
2023-03-11T06:18:50.027Z,4
2023-03-11T06:19:57.148Z,4
2023-03-11T06:21:04.548Z,4
2023-03-11T06:22:15.561Z,4
2023-03-11T06:23:22.483Z,5
2023-03-11T06:24:29.758Z,4
2023-03-11T06:25:37.077Z,3
2023-03-11T06:26:44.109Z,4
2023-03-11T06:27:51.352Z,5
2023-03-11T06:28:58.443Z,4
2023-03-11T06:30:05.888Z,4
2023-03-11T06:31:16.358Z,4
2023-03-11T06:32:23.439Z,5
2023-03-11T06:33:30.743Z,7
2023-03-11T06:34:39.582Z,5
2023-03-11T06:35:47.176Z,4
2023-03-11T06:36:59.242Z,4
2023-03-11T06:38:06.338Z,3
2023-03-11T06:39:13.949Z,3
2023-03-11T06:40:21.021Z,2
2023-03-11T06:41:28.085Z,3
2023-03-11T06:42:38.066Z,3
2023-03-11T06:43:48.994Z,3
2023-03-11T06:44:57.847Z,3
2023-03-11T06:46:03.607Z,3
2023-03-11T06:47:09.450Z,3
2023-03-11T06:48:14.747Z,3
2023-03-11T06:49:19.910Z,3
2023-03-11T06:50:27.231Z,7
2023-03-11T06:51:35.441Z,9
2023-03-11T06:52:42.623Z,9
2023-03-11T06:53:51.874Z,8
2023-03-11T06:54:59.326Z,8
2023-03-11T06:56:06.792Z,5
2023-03-11T06:57:13.793Z,5
2023-03-11T06:58:20.747Z,5
2023-03-11T06:59:30.577Z,4
2023-03-11T07:00:37.862Z,4
2023-03-11T07:01:44.875Z,4
2023-03-11T07:02:51.868Z,5
2023-03-11T07:03:59.088Z,5
2023-03-11T07:05:06.944Z,5
2023-03-11T07:06:13.986Z,6
2023-03-11T07:07:21.061Z,5
2023-03-11T07:08:28.050Z,9
2023-03-11T07:09:35.300Z,7
2023-03-11T07:10:44.183Z,8
2023-03-11T07:11:51.767Z,6
2023-03-11T07:12:59.015Z,6
2023-03-11T07:14:05.977Z,8
2023-03-11T07:15:13.184Z,8
2023-03-11T07:16:20.340Z,9
2023-03-11T07:17:27.451Z,10
2023-03-11T07:18:37.129Z,9
2023-03-11T07:19:45.064Z,9
2023-03-11T07:20:52.402Z,9
2023-03-11T07:22:00.745Z,11
2023-03-11T07:23:08.286Z,10
2023-03-11T07:24:16.347Z,9
2023-03-11T07:25:26.524Z,10
2023-03-11T07:26:33.653Z,10
2023-03-11T07:27:41.658Z,9
2023-03-11T07:28:50.883Z,9
2023-03-11T07:29:58.354Z,10
2023-03-11T07:31:05.497Z,9
2023-03-11T07:32:15.383Z,9
2023-03-11T07:33:22.237Z,10
2023-03-11T07:34:30.063Z,10
2023-03-11T07:35:37.368Z,9
2023-03-11T07:36:44.344Z,9
2023-03-11T07:37:51.389Z,10
2023-03-11T07:38:58.406Z,10
2023-03-11T07:40:06.620Z,9
2023-03-11T07:41:14.173Z,9
2023-03-11T07:42:20.917Z,10
2023-03-11T07:43:27.934Z,8
2023-03-11T07:44:35.123Z,10
2023-03-11T07:45:45.237Z,11
2023-03-11T07:47:05.892Z,10
2023-03-11T07:48:23.991Z,12
2023-03-11T07:49:33.706Z,11
2023-03-11T07:50:40.819Z,11
2023-03-11T07:51:48.052Z,14
2023-03-11T07:52:55.748Z,14
2023-03-11T07:54:02.679Z,12
2023-03-11T07:55:10.652Z,15
2023-03-11T07:56:17.667Z,15
2023-03-11T07:57:25.594Z,15
2023-03-11T07:58:32.648Z,15
2023-03-11T07:59:40.790Z,16
2023-03-11T08:00:47.816Z,18
2023-03-11T08:01:55.641Z,15
2023-03-11T08:03:05.040Z,16
2023-03-11T08:04:14.276Z,15
2023-03-11T08:05:18.856Z,14
2023-03-11T08:06:25.752Z,14
2023-03-11T08:07:32.723Z,10
2023-03-11T08:08:40.831Z,13
2023-03-11T08:09:51.339Z,8
2023-03-11T08:10:58.238Z,8
2023-03-11T08:12:05.124Z,6
2023-03-11T08:13:12.229Z,7
2023-03-11T08:14:19.227Z,6
2023-03-11T08:15:27.006Z,7
2023-03-11T08:16:33.724Z,6
2023-03-11T08:17:40.594Z,7
2023-03-11T08:18:49.036Z,5
2023-03-11T08:19:55.943Z,5
2023-03-11T08:21:02.975Z,6
2023-03-11T08:22:12.687Z,6
2023-03-11T08:23:21.413Z,6
2023-03-11T08:24:31.368Z,5
2023-03-11T08:25:38.208Z,4
2023-03-11T08:26:46.239Z,5
2023-03-11T08:27:56.121Z,5
2023-03-11T08:29:03.059Z,6
2023-03-11T08:30:10.019Z,6
2023-03-11T08:31:17.375Z,7
2023-03-11T08:32:26.320Z,7
2023-03-11T08:33:33.258Z,7
2023-03-11T08:34:40.107Z,8
2023-03-11T08:35:46.977Z,6
2023-03-11T08:36:56.339Z,5
2023-03-11T08:38:05.555Z,5
2023-03-11T08:39:13.431Z,5
2023-03-11T08:40:20.171Z,5
2023-03-11T08:41:28.532Z,6
2023-03-11T08:42:37.110Z,5
2023-03-11T08:43:42.647Z,4
2023-03-11T08:44:49.719Z,3
2023-03-11T08:45:56.686Z,4
2023-03-11T08:47:04.825Z,4
2023-03-11T08:48:11.831Z,5
2023-03-11T08:49:22.469Z,5
2023-03-11T08:50:30.317Z,6
2023-03-11T08:51:37.290Z,8
2023-03-11T08:52:48.069Z,8
2023-03-11T08:53:55.065Z,7
2023-03-11T08:55:04.220Z,6
2023-03-11T08:56:11.942Z,7
2023-03-11T08:57:18.806Z,7
2023-03-11T08:58:25.997Z,6
2023-03-11T08:59:33.805Z,8
2023-03-11T09:00:43.013Z,6
2023-03-11T09:01:50.135Z,6
2023-03-11T09:02:57.096Z,6
2023-03-11T09:04:04.041Z,6
2023-03-11T09:05:11.009Z,6
2023-03-11T09:06:23.009Z,6
2023-03-11T09:07:29.968Z,6
2023-03-11T09:08:38.090Z,5
2023-03-11T09:09:45.124Z,6
2023-03-11T09:10:52.179Z,6
2023-03-11T09:11:59.632Z,6
2023-03-11T09:13:06.749Z,4
2023-03-11T09:14:13.709Z,5
2023-03-11T09:15:20.779Z,8
2023-03-11T09:16:29.778Z,6
2023-03-11T09:17:37.676Z,8
2023-03-11T09:18:44.673Z,8
2023-03-11T09:19:51.577Z,5
2023-03-11T09:20:58.583Z,5
2023-03-11T09:22:05.522Z,10
2023-03-11T09:23:12.522Z,11
2023-03-11T09:24:19.473Z,6
2023-03-11T09:25:26.350Z,14
2023-03-11T09:26:33.295Z,11
2023-03-11T09:27:40.296Z,22
2023-03-11T09:28:50.678Z,72
2023-03-11T09:29:57.767Z,88
2023-03-11T09:31:04.886Z,11
2023-03-11T09:32:12.023Z,6
2023-03-11T09:33:21.932Z,65
2023-03-11T09:34:28.939Z,29
2023-03-11T09:35:36.032Z,144
2023-03-11T09:36:42.912Z,174
2023-03-11T09:37:51.527Z,57
2023-03-11T09:38:58.615Z,21
2023-03-11T09:40:06.259Z,44
2023-03-11T09:41:22.817Z,45
2023-03-11T09:42:32.820Z,17
2023-03-11T09:43:50.488Z,40
2023-03-11T09:45:07.629Z,19
2023-03-11T09:46:19.928Z,42
2023-03-11T09:47:36.842Z,13
2023-03-11T09:48:50.911Z,16
2023-03-11T09:50:08.189Z,29
2023-03-11T09:51:23.129Z,14
2023-03-11T09:52:33.753Z,41
2023-03-11T09:53:46.131Z,30
2023-03-11T09:54:54.735Z,19
2023-03-11T09:56:01.666Z,14
2023-03-11T09:57:14.195Z,23
2023-03-11T09:58:26.162Z,19
2023-03-11T09:59:43.997Z,14
2023-03-11T10:00:51.048Z,16
2023-03-11T10:01:58.091Z,11
2023-03-11T10:03:05.065Z,14
2023-03-11T10:04:12.064Z,18
2023-03-11T10:05:24.592Z,8
2023-03-11T10:06:31.564Z,12
2023-03-11T10:07:38.665Z,14
2023-03-11T10:08:46.513Z,13
2023-03-11T10:09:53.689Z,9
2023-03-11T10:11:00.741Z,10
2023-03-11T10:12:17.985Z,9
2023-03-11T10:13:34.161Z,12
2023-03-11T10:14:48.720Z,11
2023-03-11T10:16:06.743Z,13
2023-03-11T10:17:22.009Z,14
2023-03-11T10:18:39.172Z,8
2023-03-11T10:19:49.497Z,11
2023-03-11T10:20:59.836Z,8
2023-03-11T10:22:16.678Z,7
2023-03-11T10:23:26.605Z,7
2023-03-11T10:24:43.748Z,8
2023-03-11T10:25:56.721Z,9
2023-03-11T10:27:14.374Z,7
2023-03-11T10:28:24.167Z,6
2023-03-11T10:29:36.401Z,8
2023-03-11T10:30:49.273Z,11
2023-03-11T10:31:59.309Z,11
2023-03-11T10:33:11.807Z,8
2023-03-11T10:34:28.823Z,8
2023-03-11T10:35:40.890Z,8
2023-03-11T10:36:47.861Z,8
2023-03-11T10:38:05.036Z,7
2023-03-11T10:39:22.332Z,6
2023-03-11T10:40:29.518Z,8
2023-03-11T10:41:39.520Z,7
2023-03-11T10:42:50.176Z,7
2023-03-11T10:43:57.215Z,8
2023-03-11T10:45:07.725Z,6
2023-03-11T10:46:17.784Z,5
2023-03-11T10:47:27.522Z,7
2023-03-11T10:48:34.736Z,6
2023-03-11T10:49:41.866Z,5
2023-03-11T10:50:49.125Z,7
2023-03-11T10:52:03.988Z,7
2023-03-11T10:53:11.324Z,7
2023-03-11T10:54:18.408Z,7
2023-03-11T10:55:32.165Z,8
2023-03-11T10:56:39.235Z,8
2023-03-11T10:57:47.075Z,6
2023-03-11T10:59:01.956Z,7
2023-03-11T11:00:20.793Z,11
2023-03-11T11:01:32.542Z,9
2023-03-11T11:02:41.604Z,7
2023-03-11T11:03:54.780Z,8
2023-03-11T11:05:01.802Z,10
2023-03-11T11:06:13.945Z,12
2023-03-11T11:07:30.820Z,13
2023-03-11T11:08:37.781Z,9
2023-03-11T11:09:45.514Z,8
2023-03-11T11:10:52.370Z,8
2023-03-11T11:12:06.119Z,8
2023-03-11T11:13:16.718Z,9
2023-03-11T11:14:23.604Z,7
2023-03-11T11:15:31.362Z,7
2023-03-11T11:16:41.115Z,9
2023-03-11T11:17:49.938Z,8
2023-03-11T11:18:57.022Z,7
2023-03-11T11:20:08.601Z,8
2023-03-11T11:21:21.369Z,7
2023-03-11T11:22:33.958Z,6
2023-03-11T11:23:40.947Z,6
2023-03-11T11:24:53.692Z,5
2023-03-11T11:26:01.632Z,5
2023-03-11T11:27:08.563Z,5
2023-03-11T11:28:20.486Z,5
2023-03-11T11:29:27.413Z,7
2023-03-11T11:30:34.389Z,9
2023-03-11T11:31:44.029Z,8
2023-03-11T11:32:50.989Z,10
2023-03-11T11:33:57.932Z,24
2023-03-11T11:35:04.725Z,10
2023-03-11T11:36:14.447Z,17
2023-03-11T11:37:21.349Z,26
2023-03-11T11:38:28.513Z,17
2023-03-11T11:39:35.571Z,8
2023-03-11T11:40:47.645Z,10
2023-03-11T11:41:56.294Z,17
2023-03-11T11:43:03.128Z,16
2023-03-11T11:44:10.508Z,14
2023-03-11T11:45:17.518Z,18
2023-03-11T11:46:32.651Z,17
2023-03-11T11:47:45.312Z,11
2023-03-11T11:48:53.255Z,7
2023-03-11T11:50:05.314Z,10
2023-03-11T11:51:21.400Z,9
2023-03-11T11:52:32.663Z,8
2023-03-11T11:53:44.776Z,8
2023-03-11T11:54:54.574Z,10
2023-03-11T11:56:06.690Z,8
2023-03-11T11:57:13.744Z,9
2023-03-11T11:58:20.781Z,7
2023-03-11T11:59:28.797Z,8
2023-03-11T12:00:36.712Z,9
2023-03-11T12:01:48.723Z,7
2023-03-11T12:03:03.807Z,6
2023-03-11T12:04:21.085Z,9
2023-03-11T12:05:38.314Z,6
2023-03-11T12:06:54.264Z,11
2023-03-11T12:08:11.530Z,17
2023-03-11T12:09:23.722Z,10
2023-03-11T12:10:34.420Z,8
2023-03-11T12:11:52.175Z,5
2023-03-11T12:13:04.276Z,4
2023-03-11T12:14:18.023Z,4
2023-03-11T12:15:25.443Z,5
2023-03-11T12:16:32.564Z,4
2023-03-11T12:17:48.326Z,4
2023-03-11T12:18:55.284Z,4
2023-03-11T12:20:05.039Z,4
2023-03-11T12:21:13.484Z,4
2023-03-11T12:22:28.658Z,4
2023-03-11T12:23:42.217Z,5
2023-03-11T12:24:52.207Z,7
2023-03-11T12:26:06.940Z,8
2023-03-11T12:27:16.918Z,7
2023-03-11T12:28:24.493Z,10
2023-03-11T12:29:37.030Z,10
2023-03-11T12:30:44.032Z,15
2023-03-11T12:31:54.219Z,12
2023-03-11T12:33:01.253Z,13
2023-03-11T12:34:14.249Z,9
2023-03-11T12:35:21.402Z,23
2023-03-11T12:36:33.539Z,30
2023-03-11T12:37:41.045Z,20
2023-03-11T12:38:48.007Z,19
2023-03-11T12:39:55.011Z,46
2023-03-11T12:41:01.954Z,67
2023-03-11T12:42:14.687Z,34
2023-03-11T12:43:24.465Z,77
2023-03-11T12:44:34.007Z,62
2023-03-11T12:45:41.080Z,40
2023-03-11T12:46:56.305Z,140
2023-03-11T12:48:09.149Z,80
2023-03-11T12:49:26.263Z,29
2023-03-11T12:50:36.302Z,34
2023-03-11T12:51:43.424Z,40
2023-03-11T12:53:00.462Z,60
2023-03-11T12:54:10.743Z,54
2023-03-11T12:55:22.727Z,38
2023-03-11T12:56:32.632Z,61
2023-03-11T12:57:39.912Z,39
2023-03-11T12:58:49.626Z,32
2023-03-11T13:00:07.479Z,36
2023-03-11T13:01:25.380Z,18
2023-03-11T13:02:47.860Z,8
2023-03-11T13:04:02.243Z,14
2023-03-11T13:05:16.900Z,17
2023-03-11T13:06:34.982Z,9
2023-03-11T13:07:45.730Z,12
2023-03-11T13:08:59.376Z,10
2023-03-11T13:10:08.138Z,9
2023-03-11T13:11:15.160Z,9
2023-03-11T13:12:32.179Z,10
2023-03-11T13:13:47.235Z,8
2023-03-11T13:14:54.171Z,10
2023-03-11T13:16:14.077Z,12
2023-03-11T13:17:20.967Z,12
2023-03-11T13:18:31.127Z,20
2023-03-11T13:19:38.081Z,15
2023-03-11T13:20:50.319Z,9
2023-03-11T13:21:57.324Z,15
2023-03-11T13:23:04.280Z,11
2023-03-11T13:24:21.312Z,20
2023-03-11T13:25:32.145Z,13
2023-03-11T13:26:45.154Z,12
2023-03-11T13:27:55.004Z,12
2023-03-11T13:29:07.616Z,14
2023-03-11T13:30:22.758Z,11
2023-03-11T13:31:29.789Z,12
2023-03-11T13:32:41.747Z,11
2023-03-11T13:33:59.251Z,9
2023-03-11T13:35:14.430Z,7
2023-03-11T13:36:31.854Z,7
2023-03-11T13:37:46.630Z,7
2023-03-11T13:39:04.126Z,8
2023-03-11T13:40:16.137Z,7
2023-03-11T13:41:28.998Z,8
2023-03-11T13:42:37.469Z,8
2023-03-11T13:43:50.233Z,8
2023-03-11T13:44:57.726Z,8
2023-03-11T13:46:04.774Z,7
2023-03-11T13:47:14.864Z,7
2023-03-11T13:48:21.845Z,7
2023-03-11T13:49:32.375Z,7
2023-03-11T13:50:49.631Z,8
2023-03-11T13:51:56.646Z,8
2023-03-11T13:53:08.208Z,7
2023-03-11T13:54:19.189Z,7
2023-03-11T13:55:34.166Z,8
2023-03-11T13:56:43.995Z,7
2023-03-11T13:57:56.268Z,7
2023-03-11T13:59:03.180Z,9
2023-03-11T14:00:20.192Z,6
2023-03-11T14:01:27.230Z,7
2023-03-11T14:02:34.124Z,6
2023-03-11T14:03:41.039Z,7
2023-03-11T14:04:47.767Z,7
2023-03-11T14:05:54.648Z,7
2023-03-11T14:07:01.566Z,6
2023-03-11T14:08:16.089Z,7
2023-03-11T14:09:27.968Z,6
2023-03-11T14:10:35.215Z,7
2023-03-11T14:11:42.174Z,8
2023-03-11T14:12:49.132Z,7
2023-03-11T14:14:00.993Z,7
2023-03-11T14:15:08.833Z,8
2023-03-11T14:16:19.835Z,9
2023-03-11T14:17:29.849Z,8
2023-03-11T14:18:36.928Z,8
2023-03-11T14:19:44.266Z,8
2023-03-11T14:21:01.333Z,10
2023-03-11T14:22:08.353Z,13
2023-03-11T14:23:15.342Z,19
2023-03-11T14:24:22.631Z,83
2023-03-11T14:25:30.038Z,75
2023-03-11T14:26:37.043Z,59
2023-03-11T14:27:44.066Z,60
2023-03-11T14:28:56.137Z,63
2023-03-11T14:30:10.030Z,37
2023-03-11T14:31:23.296Z,42
2023-03-11T14:32:37.810Z,49
2023-03-11T14:33:44.646Z,47
2023-03-11T14:34:58.139Z,65
2023-03-11T14:36:06.873Z,81
2023-03-11T14:37:14.098Z,56
2023-03-11T14:38:29.154Z,33
2023-03-11T14:39:36.223Z,82
2023-03-11T14:40:44.052Z,57
2023-03-11T14:41:52.191Z,29
2023-03-11T14:43:04.251Z,71
2023-03-11T14:44:11.169Z,44
2023-03-11T14:45:18.337Z,36
2023-03-11T14:46:25.887Z,27
2023-03-11T14:47:34.922Z,23
2023-03-11T14:48:44.838Z,12
2023-03-11T14:49:51.883Z,26
2023-03-11T14:51:01.934Z,9
2023-03-11T14:52:11.171Z,10
2023-03-11T14:53:29.317Z,12
2023-03-11T14:54:41.609Z,20
2023-03-11T14:55:52.018Z,13
2023-03-11T14:57:04.041Z,11
2023-03-11T14:58:13.354Z,15
2023-03-11T14:59:26.085Z,13
2023-03-11T15:00:33.302Z,10
2023-03-11T15:01:41.566Z,11
2023-03-11T15:02:48.663Z,12
2023-03-11T15:04:01.799Z,13
2023-03-11T15:05:10.436Z,11
2023-03-11T15:06:20.325Z,12
2023-03-11T15:07:33.476Z,9
2023-03-11T15:08:40.821Z,9
2023-03-11T15:09:50.728Z,9
2023-03-11T15:10:57.688Z,13
2023-03-11T15:12:05.246Z,11
2023-03-11T15:13:15.377Z,8
2023-03-11T15:14:23.389Z,10
2023-03-11T15:15:33.894Z,13
2023-03-11T15:16:41.947Z,13
2023-03-11T15:17:49.513Z,17
2023-03-11T15:18:58.529Z,16
2023-03-11T15:20:16.234Z,17
2023-03-11T15:21:26.606Z,15
2023-03-11T15:22:35.715Z,13
2023-03-11T15:23:48.271Z,15
2023-03-11T15:25:05.875Z,16
2023-03-11T15:26:19.823Z,11
2023-03-11T15:27:31.347Z,12
2023-03-11T15:28:39.339Z,17
2023-03-11T15:29:46.769Z,12
2023-03-11T15:30:56.253Z,15
2023-03-11T15:32:15.110Z,12
2023-03-11T15:33:32.486Z,11
2023-03-11T15:34:39.514Z,14
2023-03-11T15:35:46.603Z,11
2023-03-11T15:36:54.393Z,10
2023-03-11T15:38:10.353Z,9
2023-03-11T15:39:22.481Z,7
2023-03-11T15:40:44.781Z,9
2023-03-11T15:41:42.474Z,8
2023-03-11T15:42:50.304Z,8
2023-03-11T15:44:08.249Z,7
2023-03-11T15:45:24.191Z,7
2023-03-11T15:46:31.389Z,7
2023-03-11T15:47:38.580Z,15
2023-03-11T15:48:45.903Z,42
2023-03-11T15:49:56.478Z,114
2023-03-11T15:51:04.421Z,38
2023-03-11T15:52:16.218Z,51
2023-03-11T15:53:24.454Z,27
2023-03-11T15:54:31.773Z,134
2023-03-11T15:55:41.304Z,149
2023-03-11T15:56:50.194Z,125
2023-03-11T15:57:58.861Z,142
2023-03-11T15:59:07.018Z,107
2023-03-11T16:00:17.629Z,76
2023-03-11T16:01:25.236Z,138
2023-03-11T16:02:32.416Z,117
2023-03-11T16:03:39.825Z,138
2023-03-11T16:04:47.083Z,125
2023-03-11T16:05:54.396Z,123
2023-03-11T16:07:07.714Z,61
2023-03-11T16:08:11.336Z,93
2023-03-11T16:09:20.067Z,108
2023-03-11T16:10:27.525Z,51
2023-03-11T16:11:36.751Z,43
2023-03-11T16:12:43.879Z,86
2023-03-11T16:13:51.159Z,49
2023-03-11T16:14:58.798Z,51
2023-03-11T16:16:08.810Z,45
2023-03-11T16:17:21.756Z,33
2023-03-11T16:18:29.280Z,17
2023-03-11T16:19:36.747Z,15
2023-03-11T16:20:46.709Z,12
2023-03-11T16:21:54.409Z,15
2023-03-11T16:23:01.507Z,13
2023-03-11T16:24:09.818Z,12
2023-03-11T16:25:21.629Z,13
2023-03-11T16:26:39.363Z,14
2023-03-11T16:27:51.971Z,10
2023-03-11T16:29:09.305Z,9
2023-03-11T16:30:07.968Z,10
2023-03-11T16:31:16.520Z,9
2023-03-11T16:32:26.160Z,8
2023-03-11T16:33:36.558Z,9
2023-03-11T16:34:45.957Z,9
2023-03-11T16:35:54.072Z,8
2023-03-11T16:37:05.186Z,11
2023-03-11T16:38:15.480Z,8
2023-03-11T16:39:28.282Z,9
2023-03-11T16:40:41.018Z,11
2023-03-11T16:41:52.475Z,7
2023-03-11T16:42:59.688Z,9
2023-03-11T16:44:09.669Z,8
2023-03-11T16:45:23.510Z,9
2023-03-11T16:46:35.364Z,9
2023-03-11T16:47:47.741Z,11
2023-03-11T16:49:00.128Z,9